createdAt,value
2018-07-08T00:00:06.451Z,4.83
2018-07-08T00:02:34.970Z,4.20
2018-07-08T00:05:03.522Z,4.80
2018-07-08T00:07:32.140Z,4.73
2018-07-08T00:10:00.648Z,4.67
2018-07-08T00:12:29.182Z,4.40
2018-07-08T00:14:57.673Z,4.90
2018-07-08T00:17:26.208Z,4.63
2018-07-08T00:19:54.920Z,4.67
2018-07-08T00:22:23.459Z,5.20
2018-07-08T00:24:51.917Z,5.90
2018-07-08T00:27:20.610Z,5.83
2018-07-08T00:29:49.290Z,5.50
2018-07-08T00:32:17.874Z,6.37
2018-07-08T00:34:46.474Z,5.77
2018-07-08T00:37:15.024Z,5.20
2018-07-08T00:39:43.560Z,5.70
2018-07-08T00:42:12.521Z,6.27
2018-07-08T00:44:41.028Z,5.70
2018-07-08T00:47:09.511Z,6.67
2018-07-08T00:49:38.401Z,5.50
2018-07-08T00:52:07.121Z,5.80
2018-07-08T00:54:35.624Z,6.50
2018-07-08T00:57:04.176Z,6.27
2018-07-08T00:59:32.886Z,6.00
2018-07-08T01:02:01.553Z,6.80
2018-07-08T01:04:30.129Z,6.77
2018-07-08T01:06:58.662Z,7.00
2018-07-08T01:09:27.133Z,6.27
2018-07-08T01:11:55.693Z,7.20
2018-07-08T01:14:24.178Z,7.43
2018-07-08T01:16:52.675Z,7.20
2018-07-08T01:19:21.224Z,7.43
2018-07-08T01:21:49.956Z,7.30
2018-07-08T01:24:18.445Z,8.47
2018-07-08T01:26:46.967Z,7.80
2018-07-08T01:29:15.689Z,8.60
2018-07-08T01:31:44.327Z,7.90
2018-07-08T01:34:12.816Z,8.03
2018-07-08T01:36:41.305Z,7.87
2018-07-08T01:39:10.013Z,8.10
2018-07-08T01:41:38.693Z,8.40
2018-07-08T01:44:07.158Z,8.40
2018-07-08T01:46:35.672Z,7.67
2018-07-08T01:49:04.213Z,8.57
2018-07-08T01:51:32.759Z,8.90
2018-07-08T01:54:01.437Z,7.97
2018-07-08T01:56:29.953Z,7.83
2018-07-08T01:58:58.809Z,8.73
2018-07-08T02:01:27.324Z,8.50
2018-07-08T02:03:55.846Z,8.30
2018-07-08T02:06:24.630Z,8.83
2018-07-08T02:08:53.129Z,9.00
2018-07-08T02:11:21.661Z,8.80
2018-07-08T02:13:50.227Z,7.53
2018-07-08T02:16:18.884Z,8.10
2018-07-08T02:18:47.430Z,8.50
2018-07-08T02:21:16.242Z,8.20
2018-07-08T02:23:45.406Z,10.40
2018-07-08T02:26:13.875Z,8.70
2018-07-08T02:28:42.428Z,8.73
2018-07-08T02:31:10.964Z,10.73
2018-07-08T02:33:39.644Z,9.30
2018-07-08T02:36:08.176Z,8.80
2018-07-08T02:38:36.733Z,8.20
2018-07-08T02:41:05.240Z,8.50
2018-07-08T02:43:33.718Z,10.77
2018-07-08T02:46:02.474Z,8.80
2018-07-08T02:48:31.155Z,10.30
2018-07-08T02:50:59.674Z,8.87
2018-07-08T02:53:28.141Z,9.83
2018-07-08T02:55:56.672Z,9.57
2018-07-08T02:58:25.155Z,9.30
2018-07-08T03:00:53.656Z,9.83
2018-07-08T03:03:22.136Z,8.07
2018-07-08T03:05:50.608Z,8.17
2018-07-08T03:08:19.125Z,7.33
2018-07-08T03:10:47.639Z,8.27
2018-07-08T03:13:16.292Z,6.60
2018-07-08T03:15:44.892Z,7.37
2018-07-08T03:18:13.839Z,7.90
2018-07-08T03:20:42.363Z,7.00
2018-07-08T03:23:10.834Z,7.33
2018-07-08T03:25:39.316Z,7.83
2018-07-08T03:28:07.893Z,7.50
2018-07-08T03:30:36.377Z,6.80
2018-07-08T03:33:05.206Z,8.13
2018-07-08T03:35:33.689Z,8.13
2018-07-08T03:38:02.375Z,8.47
2018-07-08T03:40:30.996Z,6.80
2018-07-08T03:42:59.497Z,8.57
2018-07-08T03:45:28.010Z,6.57
2018-07-08T03:47:56.506Z,7.30
2018-07-08T03:50:24.990Z,8.03
2018-07-08T03:52:53.475Z,6.67
2018-07-08T03:55:22.010Z,7.60
2018-07-08T03:57:50.520Z,8.20
2018-07-08T04:00:19.002Z,6.70
2018-07-08T04:02:47.505Z,7.33
2018-07-08T04:05:16.031Z,8.57
2018-07-08T04:07:44.857Z,7.67
2018-07-08T04:10:13.349Z,7.40
2018-07-08T04:12:43.538Z,7.20
2018-07-08T04:15:12.214Z,6.93
2018-07-08T04:17:40.669Z,7.33
2018-07-08T04:20:09.171Z,6.90
2018-07-08T04:22:37.786Z,6.17
2018-07-08T04:25:06.288Z,7.30
2018-07-08T04:27:34.765Z,6.00
2018-07-08T04:30:03.350Z,7.03
2018-07-08T04:32:31.841Z,6.20
2018-07-08T04:35:00.344Z,6.47
2018-07-08T04:37:28.792Z,6.40
2018-07-08T04:39:57.436Z,7.53
2018-07-08T04:42:25.921Z,8.70
2018-07-08T04:44:54.384Z,8.50
2018-07-08T04:47:22.920Z,8.40
2018-07-08T04:49:51.392Z,9.00
2018-07-08T04:52:19.881Z,9.23
2018-07-08T04:54:48.381Z,9.00
2018-07-08T04:57:16.922Z,9.40
2018-07-08T04:59:45.796Z,10.50
2018-07-08T05:02:14.330Z,8.03
2018-07-08T05:04:42.901Z,9.30
2018-07-08T05:07:11.585Z,9.27
2018-07-08T05:09:40.364Z,7.50
2018-07-08T05:12:08.836Z,6.60
2018-07-08T05:14:37.312Z,6.00
2018-07-08T05:17:05.879Z,5.90
2018-07-08T05:19:34.437Z,5.50
2018-07-08T05:22:02.905Z,4.60
2018-07-08T05:24:31.382Z,5.13
2018-07-08T05:27:00.266Z,4.97
2018-07-08T05:29:28.755Z,4.97
2018-07-08T05:31:57.297Z,4.87
2018-07-08T05:34:25.773Z,5.13
2018-07-08T05:36:54.457Z,5.53
2018-07-08T05:39:22.916Z,4.40
2018-07-08T05:41:51.447Z,4.70
2018-07-08T05:44:20.036Z,5.10
2018-07-08T05:46:48.733Z,3.73
2018-07-08T05:49:17.240Z,3.87
2018-07-08T05:51:45.876Z,4.93
2018-07-08T05:54:14.758Z,4.17
2018-07-08T05:56:43.323Z,4.37
2018-07-08T05:59:12.247Z,4.03
2018-07-08T06:01:40.992Z,4.43
2018-07-08T06:04:09.513Z,3.87
2018-07-08T06:06:38.021Z,3.60
2018-07-08T06:09:07.108Z,3.90
2018-07-08T06:11:35.666Z,3.80
2018-07-08T06:14:04.647Z,4.00
2018-07-08T06:16:33.151Z,3.80
2018-07-08T06:19:01.658Z,4.10
2018-07-08T06:21:30.269Z,3.40
2018-07-08T06:23:58.738Z,4.23
2018-07-08T06:26:27.326Z,3.43
2018-07-08T06:28:55.964Z,4.80
2018-07-08T06:31:24.421Z,3.63
2018-07-08T06:33:52.909Z,3.73
2018-07-08T06:36:21.412Z,3.80
2018-07-08T06:38:49.991Z,3.40
2018-07-08T06:41:18.452Z,3.83
2018-07-08T06:43:46.974Z,3.77
2018-07-08T06:46:15.577Z,4.80
2018-07-08T06:48:44.083Z,4.63
2018-07-08T06:51:12.644Z,5.30
2018-07-08T06:53:41.213Z,3.80
2018-07-08T06:56:09.793Z,4.40
2018-07-08T06:58:38.310Z,2.87
2018-07-08T07:01:07.499Z,4.00
2018-07-08T07:03:36.017Z,3.07
2018-07-08T07:06:04.505Z,3.20
2018-07-08T07:08:33.387Z,3.00
2018-07-08T07:11:01.936Z,2.90
2018-07-08T07:13:30.385Z,2.50
2018-07-08T07:15:59.401Z,2.93
2018-07-08T07:18:27.873Z,2.20
2018-07-08T07:20:56.357Z,2.70
2018-07-08T07:23:25.693Z,2.60
2018-07-08T07:25:54.381Z,2.63
2018-07-08T07:28:22.885Z,3.03
2018-07-08T07:30:51.405Z,2.30
2018-07-08T07:33:19.913Z,2.80
2018-07-08T07:35:48.401Z,2.90
2018-07-08T07:38:17.021Z,3.00
2018-07-08T07:40:45.558Z,2.80
2018-07-08T07:43:14.025Z,2.47
2018-07-08T07:45:42.534Z,3.00
2018-07-08T07:48:11.036Z,2.50
2018-07-08T07:50:39.504Z,1.90
2018-07-08T07:53:07.968Z,2.40
2018-07-08T07:55:36.544Z,2.60
2018-07-08T07:58:05.035Z,2.90
2018-07-08T08:00:33.497Z,2.40
2018-07-08T08:03:01.985Z,1.93
2018-07-08T08:05:30.501Z,2.63
2018-07-08T08:07:59.005Z,2.37
2018-07-08T08:10:27.509Z,1.73
2018-07-08T08:12:55.972Z,2.37
2018-07-08T08:15:24.478Z,2.20
2018-07-08T08:17:52.984Z,2.40
2018-07-08T08:20:21.499Z,2.20
2018-07-08T08:22:50.584Z,3.00
2018-07-08T08:25:19.062Z,2.73
2018-07-08T08:27:47.627Z,2.77
2018-07-08T08:30:16.277Z,2.30
2018-07-08T08:32:44.941Z,2.93
2018-07-08T08:35:17.236Z,2.93
2018-07-08T08:37:51.762Z,3.40
2018-07-08T08:40:21.604Z,2.93
2018-07-08T08:42:50.801Z,2.47
2018-07-08T08:45:20.333Z,2.80
2018-07-08T08:47:48.794Z,2.10
2018-07-08T08:50:17.910Z,2.57
2018-07-08T08:52:46.469Z,2.97
2018-07-08T08:55:15.246Z,3.20
2018-07-08T08:57:43.767Z,2.30
2018-07-08T09:00:15.544Z,2.40
2018-07-08T09:02:44.057Z,2.60
2018-07-08T09:05:12.554Z,2.37
2018-07-08T09:07:41.213Z,2.20
2018-07-08T09:10:09.684Z,2.90
2018-07-08T09:12:38.148Z,2.73
2018-07-08T09:15:06.799Z,2.63
2018-07-08T09:17:35.306Z,2.10
2018-07-08T09:20:03.884Z,2.90
2018-07-08T09:22:32.378Z,2.13
2018-07-08T09:25:00.903Z,2.60
2018-07-08T09:27:29.415Z,2.90
2018-07-08T09:29:57.917Z,2.20
2018-07-08T09:32:26.385Z,2.93
2018-07-08T09:34:54.937Z,3.17
2018-07-08T09:37:23.463Z,2.50
2018-07-08T09:39:51.944Z,2.33
2018-07-08T09:42:20.486Z,2.40
2018-07-08T09:44:48.961Z,2.50
2018-07-08T09:47:17.517Z,2.17
2018-07-08T09:49:46.305Z,2.80
2018-07-08T09:52:14.871Z,2.30
2018-07-08T09:54:43.387Z,2.37
2018-07-08T09:57:11.850Z,2.70
2018-07-08T09:59:40.360Z,1.83
2018-07-08T10:02:08.822Z,2.00
2018-07-08T10:04:37.410Z,2.30
2018-07-08T10:07:05.953Z,1.97
2018-07-08T10:09:34.499Z,2.57
2018-07-08T10:12:03.044Z,2.40
2018-07-08T10:14:31.518Z,2.37
2018-07-08T10:16:59.999Z,2.67
2018-07-08T10:19:28.539Z,2.23
2018-07-08T10:21:57.113Z,2.60
2018-07-08T10:24:25.570Z,2.50
2018-07-08T10:27:45.698Z,2.30
2018-07-08T10:30:14.189Z,2.73
2018-07-08T10:32:42.656Z,3.10
2018-07-08T10:35:21.040Z,2.60
2018-07-08T10:37:49.701Z,2.57
2018-07-08T10:40:18.291Z,2.00
2018-07-08T10:42:46.818Z,2.40
2018-07-08T10:45:15.380Z,2.57
2018-07-08T10:47:43.910Z,3.07
2018-07-08T10:50:12.417Z,2.03
2018-07-08T10:52:40.888Z,2.00
2018-07-08T10:55:09.681Z,1.83
2018-07-08T10:57:38.151Z,2.10
2018-07-08T11:00:06.928Z,2.30
2018-07-08T11:02:35.638Z,2.23
2018-07-08T11:05:04.592Z,2.40
2018-07-08T11:07:33.061Z,2.13
2018-07-08T11:10:01.555Z,1.93
2018-07-08T11:12:30.081Z,2.43
2018-07-08T11:14:58.545Z,2.33
2018-07-08T11:17:27.111Z,2.30
2018-07-08T11:19:55.613Z,2.00
2018-07-08T11:22:24.118Z,1.90
2018-07-08T11:24:52.622Z,2.07
2018-07-08T11:27:21.205Z,2.50
2018-07-08T11:29:49.933Z,1.90
2018-07-08T11:32:18.492Z,2.30
2018-07-08T11:34:47.621Z,2.57
2018-07-08T11:37:17.035Z,1.97
2018-07-08T11:39:45.577Z,1.70
2018-07-08T11:42:14.119Z,2.03
2018-07-08T11:44:42.609Z,1.63
2018-07-08T11:47:11.132Z,2.00
2018-07-08T11:49:39.599Z,1.77
2018-07-08T11:52:08.151Z,1.90
2018-07-08T11:54:36.665Z,1.97
2018-07-08T11:57:05.373Z,2.33
2018-07-08T11:59:33.846Z,1.60
2018-07-08T12:02:02.344Z,2.10
2018-07-08T12:04:30.913Z,1.60
2018-07-08T12:06:59.398Z,2.07
2018-07-08T12:09:27.912Z,1.37
2018-07-08T12:11:56.459Z,1.87
2018-07-08T12:14:25.056Z,1.60
2018-07-08T12:16:53.655Z,1.63
2018-07-08T12:19:22.161Z,1.40
2018-07-08T12:21:50.674Z,1.70
2018-07-08T12:24:19.166Z,1.93
2018-07-08T12:26:47.840Z,1.40
2018-07-08T12:29:16.318Z,1.80
2018-07-08T12:31:44.877Z,1.53
2018-07-08T12:34:13.349Z,1.90
2018-07-08T12:36:41.837Z,1.60
2018-07-08T12:39:12.190Z,1.57
2018-07-08T12:41:41.294Z,1.70
2018-07-08T12:44:10.042Z,1.87
2018-07-08T12:46:39.032Z,1.37
2018-07-08T12:49:07.903Z,1.63
2018-07-08T12:51:36.386Z,1.60
2018-07-08T12:54:05.065Z,1.70
2018-07-08T12:56:33.537Z,1.63
2018-07-08T12:59:02.242Z,1.60
2018-07-08T13:01:30.718Z,1.70
2018-07-08T13:03:59.289Z,1.60
2018-07-08T13:06:27.992Z,1.70
2018-07-08T13:08:56.565Z,1.67
2018-07-08T13:11:25.188Z,1.77
2018-07-08T13:13:53.769Z,1.80
2018-07-08T13:16:22.273Z,1.77
2018-07-08T13:18:50.760Z,1.73
2018-07-08T13:21:19.309Z,1.87
2018-07-08T13:23:47.892Z,1.70
2018-07-08T13:26:16.453Z,1.80
2018-07-08T13:28:44.970Z,1.43
2018-07-08T13:31:13.517Z,2.00
2018-07-08T13:33:42.038Z,1.90
2018-07-08T13:36:10.575Z,1.47
2018-07-08T13:38:39.112Z,1.40
2018-07-08T13:41:07.685Z,2.27
2018-07-08T13:43:36.290Z,1.90
2018-07-08T13:46:04.870Z,1.87
2018-07-08T13:48:33.389Z,1.50
2018-07-08T13:51:01.863Z,1.30
2018-07-08T13:53:30.855Z,1.53
2018-07-08T13:55:59.341Z,1.40
2018-07-08T13:58:27.869Z,1.90
2018-07-08T14:00:56.418Z,1.67
2018-07-08T14:03:24.909Z,1.60
2018-07-08T14:05:53.743Z,1.80
2018-07-08T14:08:22.284Z,1.70
2018-07-08T14:10:50.967Z,1.80
2018-07-08T14:13:19.573Z,1.40
2018-07-08T14:15:48.097Z,1.80
2018-07-08T14:18:16.623Z,1.80
2018-07-08T14:20:45.213Z,1.60
2018-07-08T14:23:13.686Z,1.43
2018-07-08T14:25:42.481Z,1.50
2018-07-08T14:28:11.029Z,1.70
2018-07-08T14:30:39.550Z,1.90
2018-07-08T14:33:08.133Z,1.83
2018-07-08T14:35:36.880Z,1.90
2018-07-08T14:38:05.783Z,2.13
2018-07-08T14:40:34.268Z,1.70
2018-07-08T14:43:02.798Z,1.70
2018-07-08T14:45:31.318Z,1.50
2018-07-08T14:47:59.817Z,1.57
2018-07-08T14:50:28.320Z,1.40
2018-07-08T14:52:56.913Z,2.23
2018-07-08T14:55:25.421Z,1.87
2018-07-08T14:57:53.909Z,1.90
2018-07-08T15:00:22.407Z,1.67
2018-07-08T15:02:50.927Z,1.90
2018-07-08T15:05:19.860Z,1.87
2018-07-08T15:07:48.410Z,2.47
2018-07-08T15:10:16.931Z,1.60
2018-07-08T15:12:50.131Z,2.07
2018-07-08T15:15:18.708Z,2.07
2018-07-08T15:17:47.201Z,2.40
2018-07-08T15:20:15.749Z,2.00
2018-07-08T15:22:44.232Z,2.10
2018-07-08T15:25:12.721Z,1.93
2018-07-08T15:27:41.202Z,2.53
2018-07-08T15:30:09.677Z,2.17
2018-07-08T15:32:38.350Z,2.10
2018-07-08T15:35:06.890Z,2.27
2018-07-08T15:37:35.390Z,1.80
2018-07-08T15:40:03.948Z,1.93
2018-07-08T15:42:32.430Z,2.17
2018-07-08T15:45:00.954Z,2.00
2018-07-08T15:47:29.554Z,2.43
2018-07-08T15:49:58.061Z,2.33
2018-07-08T15:52:26.566Z,2.27
2018-07-08T15:54:55.466Z,2.77
2018-07-08T15:57:24.078Z,1.80
2018-07-08T15:59:52.580Z,1.90
2018-07-08T16:02:21.094Z,2.40
2018-07-08T16:04:49.599Z,2.20
2018-07-08T16:07:18.353Z,2.37
2018-07-08T16:09:46.885Z,1.93
2018-07-08T16:12:15.373Z,2.00
2018-07-08T16:14:43.886Z,2.40
2018-07-08T16:17:12.350Z,2.23
2018-07-08T16:19:40.850Z,2.13
2018-07-08T16:22:09.353Z,2.10
2018-07-08T16:24:37.873Z,1.80
2018-07-08T16:27:06.811Z,2.43
2018-07-08T16:29:35.458Z,1.90
2018-07-08T16:32:03.968Z,2.20
2018-07-08T16:34:32.574Z,2.23
2018-07-08T16:37:01.083Z,1.90
2018-07-08T16:39:29.674Z,2.23
2018-07-08T16:41:58.326Z,1.87
2018-07-08T16:44:26.797Z,1.50
2018-07-08T16:46:55.253Z,1.83
2018-07-08T16:49:23.861Z,2.37
2018-07-08T16:51:52.397Z,2.27
2018-07-08T16:54:20.906Z,1.90
2018-07-08T16:56:50.136Z,1.87
2018-07-08T16:59:18.699Z,2.00
2018-07-08T17:01:47.261Z,1.80
2018-07-08T17:04:15.791Z,1.70
2018-07-08T17:06:44.353Z,2.23
2018-07-08T17:09:12.822Z,2.27
2018-07-08T17:11:41.310Z,2.60
2018-07-08T17:14:09.777Z,2.10
2018-07-08T17:16:38.279Z,2.07
2018-07-08T17:19:06.818Z,2.10
2018-07-08T17:21:35.313Z,1.90
2018-07-08T17:24:03.797Z,2.13
2018-07-08T17:26:32.429Z,2.17
2018-07-08T17:29:00.942Z,2.17
2018-07-08T17:31:29.486Z,2.40
2018-07-08T17:33:58.166Z,1.80
2018-07-08T17:36:26.951Z,2.20
2018-07-08T17:38:55.604Z,1.90
2018-07-08T17:41:24.074Z,1.90
2018-07-08T17:43:52.652Z,2.37
2018-07-08T17:46:21.301Z,2.53
2018-07-08T17:48:51.331Z,2.50
2018-07-08T17:51:20.018Z,2.07
2018-07-08T17:53:48.553Z,2.50
2018-07-08T17:56:17.080Z,2.47
2018-07-08T17:58:45.638Z,2.17
2018-07-08T18:01:14.137Z,2.20
2018-07-08T18:03:42.687Z,2.50
2018-07-08T18:06:11.206Z,2.37
2018-07-08T18:08:39.774Z,2.07
2018-07-08T18:11:08.434Z,2.33
2018-07-08T18:13:36.941Z,2.30
2018-07-08T18:16:06.288Z,2.40
2018-07-08T18:18:35.586Z,1.70
2018-07-08T18:21:04.776Z,2.20
2018-07-08T18:23:33.347Z,2.17
2018-07-08T18:26:01.837Z,2.07
2018-07-08T18:28:30.335Z,2.00
2018-07-08T18:30:58.868Z,2.30
2018-07-08T18:33:27.432Z,2.70
2018-07-08T18:35:56.309Z,2.40
2018-07-08T18:38:24.824Z,2.20
2018-07-08T18:40:53.370Z,2.83
2018-07-08T18:43:22.309Z,2.33
2018-07-08T18:45:50.949Z,2.90
2018-07-08T18:48:19.623Z,2.57
2018-07-08T18:50:48.127Z,2.30
2018-07-08T18:53:17.355Z,2.20
2018-07-08T18:55:45.837Z,2.53
2018-07-08T18:58:14.340Z,2.70
2018-07-08T19:00:43.302Z,3.20
2018-07-08T19:03:12.549Z,2.83
2018-07-08T19:05:41.154Z,2.50
2018-07-08T19:08:09.829Z,2.67
2018-07-08T19:10:38.306Z,3.27
2018-07-08T19:13:07.084Z,2.33
2018-07-08T19:15:35.569Z,2.60
2018-07-08T19:18:05.043Z,2.60
2018-07-08T19:20:33.513Z,2.60
2018-07-08T19:23:02.164Z,2.73
2018-07-08T19:25:30.781Z,3.60
2018-07-08T19:27:59.337Z,2.63
2018-07-08T19:30:27.856Z,2.73
2018-07-08T19:32:56.369Z,2.83
2018-07-08T19:35:24.848Z,3.47
2018-07-08T19:37:53.441Z,2.60
2018-07-08T19:40:22.012Z,3.10
2018-07-08T19:42:50.480Z,2.93
2018-07-08T19:45:19.019Z,2.90
2018-07-08T19:47:47.608Z,2.93
2018-07-08T19:50:16.139Z,3.00
2018-07-08T19:52:44.650Z,3.00
2018-07-08T19:55:13.165Z,3.70
2018-07-08T19:57:41.649Z,3.00
2018-07-08T20:00:10.124Z,3.40
2018-07-08T20:02:38.640Z,3.20
2018-07-08T20:05:07.148Z,3.07
2018-07-08T20:07:35.680Z,3.37
2018-07-08T20:10:04.352Z,3.70
2018-07-08T20:12:32.825Z,4.23
2018-07-08T20:15:02.218Z,4.23
2018-07-08T20:17:30.742Z,3.87
2018-07-08T20:19:59.314Z,3.80
2018-07-08T20:22:27.785Z,3.73
2018-07-08T20:24:56.354Z,3.60
2018-07-08T20:27:24.879Z,3.97
2018-07-08T20:29:53.450Z,3.70
2018-07-08T20:32:22.055Z,4.10
2018-07-08T20:34:50.697Z,3.80
2018-07-08T20:37:19.260Z,4.77
2018-07-08T20:39:48.144Z,3.70
2018-07-08T20:42:16.636Z,4.20
2018-07-08T20:44:45.271Z,3.50
2018-07-08T20:47:13.780Z,3.90
2018-07-08T20:49:42.264Z,4.47
2018-07-08T20:52:10.750Z,4.10
2018-07-08T20:54:39.277Z,4.03
2018-07-08T20:57:07.770Z,4.40
2018-07-08T20:59:36.301Z,4.30
2018-07-08T21:02:04.897Z,4.53
2018-07-08T21:04:33.546Z,4.63
2018-07-08T21:07:02.189Z,5.00
2018-07-08T21:09:30.721Z,4.30
2018-07-08T21:11:59.180Z,4.90
2018-07-08T21:14:27.881Z,5.10
2018-07-08T21:16:56.398Z,5.13
2018-07-08T21:19:24.906Z,5.20
2018-07-08T21:21:53.471Z,6.13
2018-07-08T21:24:21.977Z,5.60
2018-07-08T21:26:50.486Z,5.30
2018-07-08T21:29:19.030Z,5.50
2018-07-08T21:31:47.506Z,5.90
2018-07-08T21:34:16.026Z,5.13
2018-07-08T21:36:44.571Z,5.27
2018-07-08T21:39:13.255Z,5.60
2018-07-08T21:41:42.440Z,5.43
2018-07-08T21:44:10.914Z,5.43
2018-07-08T21:46:39.748Z,5.80
2018-07-08T21:49:08.241Z,6.83
2018-07-08T21:51:36.737Z,6.00
2018-07-08T21:54:05.442Z,6.13
2018-07-08T21:56:33.931Z,7.27
2018-07-08T21:59:02.438Z,6.13
2018-07-08T22:01:36.913Z,6.23
2018-07-08T22:04:06.170Z,6.30
2018-07-08T22:06:34.629Z,5.83
2018-07-08T22:09:03.293Z,6.40
2018-07-08T22:11:31.797Z,5.97
2018-07-08T22:14:00.288Z,6.80
2018-07-08T22:16:28.939Z,7.23
2018-07-08T22:18:57.501Z,7.07
2018-07-08T22:21:25.965Z,6.50
2018-07-08T22:23:54.452Z,6.20
2018-07-08T22:26:22.961Z,7.07
2018-07-08T22:28:51.786Z,8.00
2018-07-08T22:31:20.458Z,6.60
2018-07-08T22:33:48.978Z,7.27
2018-07-08T22:36:17.475Z,8.10
2018-07-08T22:38:46.077Z,7.27
2018-07-08T22:41:14.566Z,6.87
2018-07-08T22:43:43.103Z,7.97
2018-07-08T22:46:11.828Z,6.80
2018-07-08T22:48:40.310Z,7.10
2018-07-08T22:51:08.761Z,7.87
2018-07-08T22:53:37.833Z,7.20
2018-07-08T22:56:06.354Z,6.97
2018-07-08T22:58:34.866Z,7.30
2018-07-08T23:01:14.449Z,7.33
2018-07-08T23:03:45.122Z,8.00
2018-07-08T23:06:13.608Z,7.27
2018-07-08T23:08:42.104Z,7.93
2018-07-08T23:11:11.008Z,7.10
2018-07-08T23:13:39.573Z,8.40
2018-07-08T23:16:08.352Z,7.97
2018-07-08T23:18:36.893Z,8.20
2018-07-08T23:21:05.666Z,7.87
2018-07-08T23:23:34.248Z,7.73
2018-07-08T23:26:02.853Z,8.03
2018-07-08T23:28:32.378Z,7.63
2018-07-08T23:31:00.922Z,8.07
2018-07-08T23:33:29.801Z,8.70
2018-07-08T23:35:58.295Z,8.07
2018-07-08T23:38:27.024Z,7.20
2018-07-08T23:40:55.554Z,7.57
2018-07-08T23:43:24.153Z,7.67
2018-07-08T23:45:52.740Z,7.10
2018-07-08T23:48:21.235Z,6.80
2018-07-08T23:50:49.880Z,7.93
2018-07-08T23:53:18.442Z,8.10
2018-07-08T23:55:47.327Z,8.27
2018-07-08T23:58:15.786Z,7.60
